createdAt,value
2018-11-12T00:02:01.186Z,14.40
2018-11-12T00:04:27.395Z,14.40
2018-11-12T00:06:53.578Z,14.40
2018-11-12T00:09:19.917Z,14.30
2018-11-12T00:11:46.041Z,14.40
2018-11-12T00:14:12.214Z,14.40
2018-11-12T00:16:38.393Z,14.30
2018-11-12T00:19:04.559Z,14.30
2018-11-12T00:21:30.772Z,14.40
2018-11-12T00:23:56.923Z,14.50
2018-11-12T00:26:23.129Z,14.50
2018-11-12T00:28:49.316Z,14.60
2018-11-12T00:31:15.449Z,14.60
2018-11-12T00:33:41.713Z,14.70
2018-11-12T00:36:07.916Z,14.70
2018-11-12T00:38:34.031Z,14.70
2018-11-12T00:41:00.304Z,14.70
2018-11-12T00:43:26.523Z,14.70
2018-11-12T00:45:52.719Z,14.70
2018-11-12T00:48:18.934Z,14.60
2018-11-12T00:50:45.064Z,14.60
2018-11-12T00:53:11.299Z,14.70
2018-11-12T00:55:37.676Z,14.70
2018-11-12T00:58:03.852Z,14.70
2018-11-12T01:00:30.854Z,14.70
2018-11-12T01:02:57.050Z,14.70
2018-11-12T01:05:23.279Z,14.50
2018-11-12T01:07:49.473Z,14.40
2018-11-12T01:10:15.618Z,14.40
2018-11-12T01:12:41.905Z,14.50
2018-11-12T01:15:08.020Z,14.40
2018-11-12T01:17:34.275Z,14.40
2018-11-12T01:20:00.472Z,14.30
2018-11-12T01:22:26.651Z,14.40
2018-11-12T01:24:52.766Z,13.90
2018-11-12T01:27:18.992Z,14.00
2018-11-12T01:29:45.196Z,14.00
2018-11-12T01:32:11.329Z,14.00
2018-11-12T01:34:37.406Z,14.00
2018-11-12T01:37:03.579Z,13.80
2018-11-12T01:39:29.840Z,13.90
2018-11-12T01:41:56.030Z,14.00
2018-11-12T01:44:22.165Z,13.90
2018-11-12T01:46:48.292Z,14.00
2018-11-12T01:49:14.473Z,14.00
2018-11-12T01:51:40.592Z,14.10
2018-11-12T01:54:06.729Z,14.10
2018-11-12T01:56:32.840Z,14.10
2018-11-12T01:58:59.067Z,14.10
2018-11-12T02:01:25.321Z,14.10
2018-11-12T02:03:51.456Z,14.00
2018-11-12T02:06:17.677Z,14.10
2018-11-12T02:08:44.098Z,14.00
2018-11-12T02:11:10.328Z,14.00
2018-11-12T02:13:36.607Z,13.80
2018-11-12T02:16:02.796Z,13.80
2018-11-12T02:18:28.897Z,13.90
2018-11-12T02:20:55.139Z,13.90
2018-11-12T02:23:21.326Z,13.90
2018-11-12T02:25:47.442Z,13.90
2018-11-12T02:28:13.643Z,13.90
2018-11-12T02:30:39.801Z,13.90
2018-11-12T02:33:06.099Z,13.80
2018-11-12T02:35:32.270Z,13.80
2018-11-12T02:37:58.403Z,13.80
2018-11-12T02:40:24.539Z,13.70
2018-11-12T02:42:50.695Z,13.70
2018-11-12T02:45:16.990Z,13.70
2018-11-12T02:47:43.286Z,13.70
2018-11-12T02:50:09.476Z,13.80
2018-11-12T02:52:35.627Z,13.80
2018-11-12T02:55:01.847Z,13.70
2018-11-12T02:57:28.126Z,13.80
2018-11-12T02:59:54.272Z,13.80
2018-11-12T03:02:20.380Z,13.80
2018-11-12T03:04:46.532Z,13.80
2018-11-12T03:07:12.763Z,13.50
2018-11-12T03:09:38.833Z,13.60
2018-11-12T03:12:05.032Z,13.60
2018-11-12T03:14:31.162Z,13.70
2018-11-12T03:16:57.377Z,13.80
2018-11-12T03:19:23.605Z,13.80
2018-11-12T03:21:49.835Z,13.80
2018-11-12T03:24:16.011Z,13.90
2018-11-12T03:26:42.182Z,13.90
2018-11-12T03:29:08.419Z,14.00
2018-11-12T03:31:34.629Z,14.10
2018-11-12T03:34:00.829Z,14.00
2018-11-12T03:36:27.103Z,14.10
2018-11-12T03:38:53.324Z,14.10
2018-11-12T03:41:19.563Z,14.10
2018-11-12T03:43:45.769Z,14.10
2018-11-12T03:46:12.057Z,14.10
2018-11-12T03:48:38.201Z,14.20
2018-11-12T03:51:04.455Z,14.20
2018-11-12T03:53:30.700Z,14.20
2018-11-12T03:55:56.914Z,14.20
2018-11-12T03:58:22.976Z,14.20
2018-11-12T04:00:49.154Z,14.20
2018-11-12T04:03:15.377Z,14.10
2018-11-12T04:05:41.518Z,14.10
2018-11-12T04:08:07.681Z,14.00
2018-11-12T04:10:33.749Z,13.90
2018-11-12T04:12:59.959Z,14.00
2018-11-12T04:15:26.309Z,14.10
2018-11-12T04:17:52.433Z,14.10
2018-11-12T04:20:18.508Z,14.20
2018-11-12T04:22:44.600Z,14.30
2018-11-12T04:25:10.747Z,14.20
2018-11-12T04:27:36.909Z,14.40
2018-11-12T04:30:03.047Z,14.50
2018-11-12T04:32:29.235Z,14.50
2018-11-12T04:34:55.517Z,14.60
2018-11-12T04:37:21.688Z,14.60
2018-11-12T04:39:47.858Z,14.70
2018-11-12T04:42:13.958Z,14.60
2018-11-12T04:44:40.064Z,14.50
2018-11-12T04:47:06.284Z,14.50
2018-11-12T04:49:32.425Z,14.50
2018-11-12T04:51:59.537Z,14.40
2018-11-12T04:54:25.747Z,14.40
2018-11-12T04:56:51.863Z,14.40
2018-11-12T04:59:18.083Z,14.50
2018-11-12T05:01:44.281Z,14.60
2018-11-12T05:04:10.364Z,14.60
2018-11-12T05:06:36.526Z,14.60
2018-11-12T05:09:02.731Z,14.60
2018-11-12T05:11:28.966Z,14.60
2018-11-12T05:13:55.156Z,14.60
2018-11-12T05:16:21.281Z,14.60
2018-11-12T05:18:47.463Z,14.70
2018-11-12T05:21:13.817Z,14.70
2018-11-12T05:23:39.961Z,14.70
2018-11-12T05:26:06.281Z,14.70
2018-11-12T05:28:32.439Z,14.80
2018-11-12T05:30:58.584Z,14.80
2018-11-12T05:33:24.837Z,14.80
2018-11-12T05:35:51.085Z,14.80
2018-11-12T05:38:17.354Z,14.70
2018-11-12T05:40:43.441Z,14.70
2018-11-12T05:43:09.616Z,14.70
2018-11-12T05:45:35.889Z,14.70
2018-11-12T05:48:02.225Z,14.70
2018-11-12T05:50:28.382Z,14.70
2018-11-12T05:52:54.502Z,14.60
2018-11-12T05:55:20.647Z,14.70
2018-11-12T05:57:46.815Z,14.60
2018-11-12T06:00:12.965Z,14.60
2018-11-12T06:02:39.089Z,14.50
2018-11-12T06:05:05.393Z,14.40
2018-11-12T06:07:31.643Z,14.50
2018-11-12T06:09:57.905Z,14.50
2018-11-12T06:12:24.060Z,14.60
2018-11-12T06:14:50.170Z,14.50
2018-11-12T06:17:16.379Z,14.60
2018-11-12T06:19:42.568Z,14.60
2018-11-12T06:22:09.725Z,14.60
2018-11-12T06:24:35.833Z,14.60
2018-11-12T06:27:02.022Z,14.70
2018-11-12T06:29:28.312Z,14.60
2018-11-12T06:31:54.440Z,14.70
2018-11-12T06:34:20.604Z,14.70
2018-11-12T06:36:46.715Z,14.70
2018-11-12T06:39:12.941Z,14.70
2018-11-12T06:41:39.089Z,14.60
2018-11-12T06:44:05.213Z,14.60
2018-11-12T06:46:31.340Z,14.60
2018-11-12T06:48:57.531Z,14.60
2018-11-12T06:51:23.777Z,14.60
2018-11-12T06:53:49.990Z,14.40
2018-11-12T06:56:16.165Z,14.40
2018-11-12T07:01:14.216Z,14.60
2018-11-12T07:03:40.470Z,14.60
2018-11-12T07:06:06.677Z,14.70
2018-11-12T07:08:32.865Z,14.70
2018-11-12T07:10:59.015Z,14.70
2018-11-12T07:13:25.285Z,14.80
2018-11-12T07:15:51.495Z,14.80
2018-11-12T07:18:17.725Z,14.80
2018-11-12T07:20:43.985Z,14.80
2018-11-12T07:23:10.309Z,14.90
2018-11-12T07:25:36.458Z,14.90
2018-11-12T07:28:02.687Z,14.90
2018-11-12T07:30:28.908Z,14.90
2018-11-12T07:32:55.025Z,14.90
2018-11-12T07:35:21.320Z,14.90
2018-11-12T07:37:47.480Z,15.00
2018-11-12T07:40:13.598Z,15.00
2018-11-12T07:42:39.874Z,15.00
2018-11-12T07:45:06.170Z,15.10
2018-11-12T07:47:32.374Z,15.10
2018-11-12T07:49:58.524Z,15.10
2018-11-12T07:52:24.699Z,15.10
2018-11-12T07:54:50.869Z,15.10
2018-11-12T07:57:17.074Z,15.10
2018-11-12T07:59:43.340Z,15.10
2018-11-12T08:02:09.540Z,15.10
2018-11-12T08:04:35.589Z,15.10
2018-11-12T08:07:01.857Z,15.10
2018-11-12T08:09:28.067Z,15.10
2018-11-12T08:11:54.245Z,15.10
2018-11-12T08:14:20.466Z,14.60
2018-11-12T08:16:46.502Z,14.90
2018-11-12T08:19:12.758Z,15.00
2018-11-12T08:21:39.008Z,15.10
2018-11-12T08:24:05.080Z,15.00
2018-11-12T08:26:31.283Z,15.00
2018-11-12T08:28:57.568Z,15.10
2018-11-12T08:31:23.780Z,15.20
2018-11-12T08:33:49.986Z,15.30
2018-11-12T08:36:16.130Z,15.40
2018-11-12T08:38:42.223Z,15.20
2018-11-12T08:41:08.366Z,15.20
2018-11-12T08:43:34.514Z,15.30
2018-11-12T08:46:00.688Z,14.80
2018-11-12T08:48:26.943Z,15.10
2018-11-12T08:50:53.027Z,15.20
2018-11-12T08:53:19.191Z,15.20
2018-11-12T08:55:45.530Z,15.30
2018-11-12T08:58:12.699Z,15.40
2018-11-12T09:00:38.069Z,15.30
2018-11-12T09:03:04.297Z,15.40
2018-11-12T09:05:30.573Z,15.40
2018-11-12T09:07:56.796Z,15.50
2018-11-12T09:10:22.976Z,15.50
2018-11-12T09:12:49.058Z,15.30
2018-11-12T09:15:15.999Z,15.50
2018-11-12T09:17:42.262Z,15.60
2018-11-12T09:20:08.364Z,15.80
2018-11-12T09:22:34.533Z,15.80
2018-11-12T09:25:00.763Z,16.00
2018-11-12T09:27:26.993Z,15.70
2018-11-12T09:29:53.309Z,16.00
2018-11-12T09:32:19.449Z,16.10
2018-11-12T09:34:45.660Z,16.20
2018-11-12T09:37:11.778Z,16.20
2018-11-12T09:39:38.081Z,16.10
2018-11-12T09:42:04.255Z,15.80
2018-11-12T09:44:30.380Z,16.00
2018-11-12T09:46:56.523Z,16.20
2018-11-12T09:49:22.596Z,16.30
2018-11-12T09:51:48.873Z,16.30
2018-11-12T09:54:15.147Z,16.40
2018-11-12T09:56:41.208Z,16.50
2018-11-12T09:59:07.340Z,16.40
2018-11-12T10:01:33.816Z,16.50
2018-11-12T10:04:00.450Z,16.70
2018-11-12T10:06:26.550Z,16.80
2018-11-12T10:08:53.139Z,17.00
2018-11-12T10:11:19.283Z,17.20
2018-11-12T10:13:47.196Z,17.20
2018-11-12T10:16:13.909Z,17.30
2018-11-12T10:18:36.035Z,17.40
2018-11-12T10:21:02.157Z,17.50
2018-11-12T10:23:28.328Z,17.60
2018-11-12T10:25:54.497Z,17.70
2018-11-12T10:28:20.622Z,17.80
2018-11-12T10:30:46.716Z,17.80
2018-11-12T10:33:12.958Z,17.90
2018-11-12T10:35:39.109Z,17.90
2018-11-12T10:38:05.211Z,17.90
2018-11-12T10:40:31.437Z,17.80
2018-11-12T10:42:57.697Z,17.90
2018-11-12T10:45:23.870Z,17.90
2018-11-12T10:47:50.063Z,17.90
2018-11-12T10:50:16.271Z,17.90
2018-11-12T10:52:42.353Z,18.00
2018-11-12T10:55:08.557Z,17.90
2018-11-12T10:57:34.595Z,17.70
2018-11-12T11:00:00.765Z,17.90
2018-11-12T11:02:26.844Z,17.90
2018-11-12T11:04:52.915Z,17.90
2018-11-12T11:07:19.153Z,18.00
2018-11-12T11:09:45.301Z,17.90
2018-11-12T11:12:11.406Z,18.00
2018-11-12T11:14:37.518Z,18.00
2018-11-12T11:17:03.715Z,18.00
2018-11-12T11:19:29.874Z,18.10
2018-11-12T11:21:56.036Z,18.20
2018-11-12T11:24:22.196Z,18.20
2018-11-12T11:26:48.344Z,18.20
2018-11-12T11:29:14.544Z,18.20
2018-11-12T11:31:40.831Z,18.10
2018-11-12T11:34:07.155Z,18.10
2018-11-12T11:36:33.328Z,17.80
2018-11-12T11:38:59.592Z,17.80
2018-11-12T11:41:25.716Z,17.80
2018-11-12T11:43:51.942Z,17.90
2018-11-12T11:46:18.141Z,17.90
2018-11-12T11:48:44.294Z,18.00
2018-11-12T11:51:10.488Z,17.90
2018-11-12T11:53:36.636Z,17.90
2018-11-12T11:56:02.730Z,17.80
2018-11-12T11:58:28.878Z,17.80
2018-11-12T12:00:55.007Z,17.60
2018-11-12T12:03:21.254Z,17.50
2018-11-12T12:05:47.539Z,17.50
2018-11-12T12:08:13.640Z,17.40
2018-11-12T12:10:39.768Z,17.20
2018-11-12T12:13:05.985Z,17.10
2018-11-12T12:15:32.238Z,17.20
2018-11-12T12:17:58.406Z,17.30
2018-11-12T12:20:24.969Z,17.30
2018-11-12T12:22:51.169Z,17.20
2018-11-12T12:25:17.480Z,16.90
2018-11-12T12:27:43.601Z,16.90
2018-11-12T12:30:09.798Z,16.90
2018-11-12T12:32:35.971Z,16.80
2018-11-12T12:35:02.114Z,16.70
2018-11-12T12:37:28.304Z,16.90
2018-11-12T12:39:54.514Z,17.00
2018-11-12T12:42:20.706Z,17.10
2018-11-12T12:44:46.968Z,17.20
2018-11-12T12:47:13.152Z,17.30
2018-11-12T12:49:39.824Z,17.40
2018-11-12T12:52:06.462Z,17.50
2018-11-12T12:54:33.064Z,17.60
2018-11-12T12:57:00.830Z,17.60
2018-11-12T12:59:27.532Z,17.60
2018-11-12T13:01:55.252Z,17.70
2018-11-12T13:04:21.614Z,17.80
2018-11-12T13:06:47.775Z,18.00
2018-11-12T13:09:14.433Z,18.30
2018-11-12T13:11:42.090Z,18.50
2018-11-12T13:14:08.896Z,18.90
2018-11-12T13:16:35.344Z,19.00
2018-11-12T13:19:02.065Z,19.20
2018-11-12T13:21:28.535Z,19.20
2018-11-12T13:23:55.149Z,19.40
2018-11-12T13:26:21.519Z,19.70
2018-11-12T13:28:47.592Z,20.00
2018-11-12T13:31:13.679Z,20.20
2018-11-12T13:33:39.731Z,20.00
2018-11-12T13:36:05.872Z,20.10
2018-11-12T13:38:31.993Z,20.00
2018-11-12T13:40:58.186Z,20.10
2018-11-12T13:43:24.391Z,20.10
2018-11-12T13:45:50.523Z,20.30
2018-11-12T13:48:16.731Z,20.30
2018-11-12T13:50:42.911Z,20.30
2018-11-12T13:53:09.082Z,20.30
2018-11-12T13:55:35.247Z,20.50
2018-11-12T13:58:01.471Z,20.50
2018-11-12T14:00:27.701Z,20.60
2018-11-12T14:02:53.787Z,20.60
2018-11-12T14:05:19.977Z,20.60
2018-11-12T14:07:46.158Z,20.50
2018-11-12T14:10:12.277Z,20.30
2018-11-12T14:12:38.381Z,20.30
2018-11-12T14:15:04.532Z,20.10
2018-11-12T14:17:31.208Z,20.00
2018-11-12T14:19:57.372Z,20.00
2018-11-12T14:22:23.592Z,19.90
2018-11-12T14:24:49.571Z,19.90
2018-11-12T14:27:15.550Z,19.90
2018-11-12T14:29:41.522Z,19.80
2018-11-12T14:32:07.500Z,19.80
2018-11-12T14:34:33.455Z,19.80
2018-11-12T14:36:59.420Z,19.70
2018-11-12T14:39:25.758Z,19.90
2018-11-12T14:41:51.949Z,20.00
2018-11-12T14:44:18.178Z,20.00
2018-11-12T14:46:44.333Z,19.90
2018-11-12T14:49:10.495Z,19.90
2018-11-12T14:51:37.114Z,19.80
2018-11-12T14:54:03.483Z,19.70
2018-11-12T14:56:30.021Z,19.80
2018-11-12T14:58:56.472Z,19.80
2018-11-12T15:01:22.751Z,19.80
2018-11-12T15:03:48.798Z,19.80
2018-11-12T15:06:14.808Z,19.90
2018-11-12T15:08:40.871Z,19.80
2018-11-12T15:11:07.283Z,19.80
2018-11-12T15:13:34.886Z,19.80
2018-11-12T15:16:01.691Z,19.80
2018-11-12T15:18:27.964Z,19.80
2018-11-12T15:20:53.996Z,19.70
2018-11-12T15:23:20.010Z,19.70
2018-11-12T15:25:46.043Z,19.60
2018-11-12T15:28:12.480Z,19.50
2018-11-12T15:30:38.963Z,19.40
2018-11-12T15:33:04.922Z,19.40
2018-11-12T15:35:31.803Z,19.30
2018-11-12T15:37:58.309Z,19.30
2018-11-12T15:40:24.559Z,19.20
2018-11-12T15:42:50.954Z,19.20
2018-11-12T15:45:17.370Z,19.10
2018-11-12T15:47:43.895Z,19.10
2018-11-12T15:50:09.916Z,19.10
2018-11-12T15:52:35.887Z,19.10
2018-11-12T15:55:01.838Z,19.10
2018-11-12T15:57:27.926Z,19.10
2018-11-12T15:59:53.787Z,19.10
2018-11-12T16:02:19.744Z,19.10
2018-11-12T16:04:45.892Z,19.10
2018-11-12T16:07:11.893Z,19.10
2018-11-12T16:09:37.868Z,19.10
2018-11-12T16:12:03.878Z,19.00
2018-11-12T16:14:29.821Z,19.00
2018-11-12T16:16:55.754Z,19.00
2018-11-12T16:19:21.874Z,19.00
2018-11-12T16:21:47.751Z,19.10
2018-11-12T16:24:13.742Z,19.00
2018-11-12T16:26:39.810Z,19.00
2018-11-12T16:29:05.743Z,19.00
2018-11-12T16:31:31.716Z,18.90
2018-11-12T16:33:57.697Z,18.90
2018-11-12T16:36:23.860Z,18.90
2018-11-12T16:38:49.841Z,18.90
2018-11-12T16:41:15.863Z,18.90
2018-11-12T16:43:41.850Z,18.90
2018-11-12T16:46:07.872Z,18.90
2018-11-12T16:48:33.758Z,19.00
2018-11-12T16:50:59.736Z,18.90
2018-11-12T16:53:25.708Z,18.90
2018-11-12T16:55:51.722Z,18.90
2018-11-12T16:58:17.731Z,19.00
2018-11-12T17:00:43.748Z,19.00
2018-11-12T17:03:09.678Z,18.90
2018-11-12T17:05:35.648Z,18.40
2018-11-12T17:08:01.708Z,18.40
2018-11-12T17:10:27.695Z,18.40
2018-11-12T17:12:53.707Z,18.20
2018-11-12T17:15:19.701Z,18.20
2018-11-12T17:17:45.708Z,17.90
2018-11-12T17:20:11.683Z,17.90
2018-11-12T17:22:37.767Z,17.90
2018-11-12T17:25:03.793Z,17.70
2018-11-12T17:27:29.756Z,17.60
2018-11-12T17:29:55.765Z,17.40
2018-11-12T17:32:21.719Z,17.20
2018-11-12T17:34:47.714Z,17.30
2018-11-12T17:37:13.679Z,17.10
2018-11-12T17:39:39.684Z,17.10
2018-11-12T17:42:05.647Z,17.10
2018-11-12T17:44:31.640Z,17.10
2018-11-12T17:46:57.586Z,17.00
2018-11-12T17:49:23.562Z,17.10
2018-11-12T17:51:49.527Z,17.10
2018-11-12T19:16:11.480Z,17.10
2018-11-12T19:18:37.547Z,17.00
2018-11-12T19:21:03.613Z,17.00
2018-11-12T19:23:29.595Z,17.10
2018-11-12T19:25:55.720Z,17.10
2018-11-12T19:28:21.745Z,17.10
2018-11-12T19:30:47.735Z,17.00
2018-11-12T19:33:13.777Z,17.10
2018-11-12T19:35:39.775Z,17.10
2018-11-12T19:38:05.785Z,17.20
2018-11-12T19:40:31.969Z,17.20
2018-11-12T19:42:57.878Z,17.10
2018-11-12T19:45:23.875Z,17.10
2018-11-12T19:47:49.834Z,17.20
2018-11-12T19:50:25.786Z,17.10
2018-11-12T19:52:51.775Z,17.20
2018-11-12T19:55:17.773Z,17.20
2018-11-12T19:57:43.780Z,17.20
2018-11-12T20:00:09.863Z,17.10
2018-11-12T20:02:35.904Z,17.10
2018-11-12T20:05:01.873Z,17.20
2018-11-12T20:07:27.875Z,17.10
2018-11-12T20:09:53.894Z,17.10
2018-11-12T20:12:19.898Z,17.10
2018-11-12T20:14:45.867Z,17.10
2018-11-12T20:17:11.819Z,17.10
2018-11-12T20:19:37.807Z,17.10
2018-11-12T20:22:03.796Z,17.10
2018-11-12T20:24:29.823Z,17.10
2018-11-12T20:26:55.822Z,17.20
2018-11-12T20:29:21.795Z,17.20
2018-11-12T20:31:47.763Z,17.20
2018-11-12T20:34:13.732Z,17.20
2018-11-12T20:36:39.720Z,17.10
2018-11-12T20:39:05.666Z,17.10
2018-11-12T20:41:31.665Z,17.10
2018-11-12T20:43:57.632Z,17.10
2018-11-12T20:46:23.591Z,17.10
2018-11-12T20:48:49.560Z,17.10
2018-11-12T20:51:15.526Z,17.10
2018-11-12T20:53:41.500Z,17.10
2018-11-12T20:56:07.488Z,17.10
2018-11-12T20:58:33.521Z,17.10
2018-11-12T21:00:59.470Z,17.10
2018-11-12T21:03:25.444Z,17.10
2018-11-12T21:05:51.460Z,17.10
2018-11-12T21:08:17.422Z,17.10
2018-11-12T21:10:43.364Z,17.10
2018-11-12T21:13:09.328Z,17.10
2018-11-12T21:15:35.776Z,17.10
2018-11-12T21:18:01.940Z,17.10
2018-11-12T21:20:27.901Z,17.10
2018-11-12T21:22:53.891Z,17.10
2018-11-12T21:25:19.924Z,17.00
2018-11-12T21:27:45.980Z,17.00
2018-11-12T21:30:12.044Z,17.00
2018-11-12T21:32:38.067Z,17.00
2018-11-12T21:35:04.011Z,17.00
2018-11-12T21:37:30.020Z,17.00
2018-11-12T21:39:56.007Z,17.00
2018-11-12T21:42:21.953Z,17.00
2018-11-12T21:44:47.942Z,17.00
2018-11-12T21:47:13.891Z,17.00
2018-11-12T21:49:39.871Z,17.00
2018-11-12T21:52:05.851Z,16.90
2018-11-12T21:54:31.811Z,16.90
2018-11-12T21:56:57.781Z,16.90
2018-11-12T21:59:23.874Z,16.90
2018-11-12T22:01:50.051Z,16.90
2018-11-12T22:04:16.011Z,16.90
2018-11-12T22:06:41.966Z,16.80
2018-11-12T22:09:07.942Z,16.80
2018-11-12T22:11:33.913Z,16.80
2018-11-12T22:14:00.104Z,16.80
2018-11-12T22:16:26.081Z,16.80
2018-11-12T22:18:52.028Z,16.70
2018-11-12T22:21:18.009Z,16.80
2018-11-12T22:23:43.970Z,16.70
2018-11-12T22:26:09.989Z,16.50
2018-11-12T22:28:35.937Z,16.50
2018-11-12T22:31:01.888Z,16.50
2018-11-12T22:33:27.899Z,16.50
2018-11-12T22:35:53.871Z,16.50
2018-11-12T22:38:19.876Z,16.50
2018-11-12T22:40:45.919Z,16.50
2018-11-12T22:43:11.885Z,16.50
2018-11-12T22:45:37.849Z,16.50
2018-11-12T22:48:03.871Z,16.50
2018-11-12T22:50:29.826Z,16.40
2018-11-12T22:52:55.800Z,16.40
2018-11-12T22:55:21.755Z,16.40
2018-11-12T22:57:47.826Z,16.40
2018-11-12T23:00:13.901Z,16.40
2018-11-12T23:02:39.923Z,16.40
2018-11-12T23:05:05.936Z,16.30
2018-11-12T23:07:31.974Z,16.20
2018-11-12T23:09:57.977Z,16.00
2018-11-12T23:12:24.041Z,16.10
2018-11-12T23:14:49.958Z,16.10
2018-11-12T23:17:15.990Z,16.10
2018-11-12T23:19:41.985Z,16.10
2018-11-12T23:22:07.948Z,16.00
2018-11-12T23:24:33.926Z,16.00
2018-11-12T23:26:59.945Z,16.10
2018-11-12T23:29:25.903Z,16.10
2018-11-12T23:31:51.876Z,16.00
2018-11-12T23:34:17.895Z,16.00
2018-11-12T23:36:43.868Z,16.00
2018-11-12T23:39:09.840Z,15.90
2018-11-12T23:41:35.827Z,15.90
2018-11-12T23:44:01.828Z,15.80
2018-11-12T23:46:27.810Z,15.90
2018-11-12T23:48:53.802Z,15.90
2018-11-12T23:51:19.759Z,15.90
2018-11-12T23:53:45.719Z,15.90
2018-11-12T23:56:11.715Z,15.80
2018-11-12T23:58:37.703Z,15.80
